Time;durP1;ratioP1;P1;durP2;ratioP2;P2;SDS_P1;SDS_P2;PMS_P1;PMS_P2;Temp;Humidity;BMP_temperature;BMP_pressure;BME280_temperature;BME280_humidity;BME280_pressure;Samples;Min_cycle;Max_cycle;Signal;HPM_P1;HPM_P2
2024/01/19 00:00:00;;;;;;;6.80;4.70;;;;;21.10;100158.00;;;;2049411;28;20223;-58
2024/01/19 00:01:01;;;;;;;8.20;5.63;;;;;21.10;100157.00;;;;2045035;28;20554;-58
2024/01/19 00:02:01;;;;;;;8.63;5.50;;;;;21.00;100166.00;;;;2048819;28;20660;-62
2024/01/19 00:03:01;;;;;;;8.40;5.37;;;;;21.00;100148.00;;;;2029010;28;20783;-61
2024/01/19 00:04:02;;;;;;;8.60;5.80;;;;;21.00;100157.00;;;;2040823;29;20228;-59
2024/01/19 00:05:03;;;;;;;7.50;5.20;;;;;21.00;100159.00;;;;2050238;28;20220;-58
2024/01/19 00:06:05;;;;;;;7.60;5.72;;;;;21.00;100163.00;;;;2040654;29;20229;-58
2024/01/19 00:07:05;;;;;;;7.80;5.27;;;;;21.00;100155.00;;;;2048731;28;20219;-57
2024/01/19 00:08:05;;;;;;;6.80;5.20;;;;;21.00;100158.00;;;;2040826;28;20692;-58
2024/01/19 00:09:07;;;;;;;6.60;4.80;;;;;21.00;100163.00;;;;2045465;28;20802;-57
2024/01/19 00:10:08;;;;;;;9.57;5.28;;;;;21.00;100160.00;;;;2049515;28;20219;-58
2024/01/19 00:11:13;;;;;;;6.85;5.28;;;;;21.00;100154.00;;;;2048428;28;20980;-58
2024/01/19 00:12:13;;;;;;;6.68;5.13;;;;;21.00;100167.00;;;;2047674;28;20578;-57
2024/01/19 00:13:14;;;;;;;7.30;5.20;;;;;21.00;100165.00;;;;2036087;28;20311;-57
2024/01/19 00:14:14;;;;;;;7.30;5.10;;;;;21.00;100163.00;;;;2044085;28;20287;-58
2024/01/19 00:15:14;;;;;;;8.27;5.60;;;;;21.00;100166.00;;;;2060095;28;20253;-57
2024/01/19 00:16:15;;;;;;;6.57;4.97;;;;;21.00;100170.00;;;;2053167;28;20292;-58
2024/01/19 00:17:15;;;;;;;7.10;5.03;;;;;21.00;100178.00;;;;2048677;28;20227;-58
2024/01/19 00:18:16;;;;;;;6.67;5.50;;;;;21.00;100171.00;;;;2035656;28;20275;-58
2024/01/19 00:19:16;;;;;;;8.00;5.10;;;;;21.00;100173.00;;;;2047424;28;20219;-58
2024/01/19 00:20:16;;;;;;;7.40;5.00;;;;;21.00;100166.00;;;;2057468;28;20235;-58
2024/01/19 00:21:17;;;;;;;7.50;5.27;;;;;21.00;100169.00;;;;2049108;28;20216;-57
2024/01/19 00:22:17;;;;;;;7.53;5.63;;;;;21.00;100195.00;;;;2049750;28;20231;-57
2024/01/19 00:23:17;;;;;;;7.93;5.47;;;;;21.00;100172.00;;;;2040422;28;20224;-58
2024/01/19 00:24:18;;;;;;;7.70;4.87;;;;;20.90;100175.00;;;;2052852;28;20594;-58
2024/01/19 00:25:18;;;;;;;7.90;6.10;;;;;20.90;100174.00;;;;2059403;28;20219;-57
2024/01/19 00:26:18;;;;;;;8.37;5.60;;;;;20.90;100176.00;;;;2055937;28;20218;-58
2024/01/19 00:27:19;;;;;;;8.10;5.83;;;;;20.90;100178.00;;;;2051499;28;20266;-58
2024/01/19 00:28:19;;;;;;;9.60;6.07;;;;;20.90;100181.00;;;;2044070;28;20220;-58
2024/01/19 00:29:19;;;;;;;8.40;5.80;;;;;20.90;100174.00;;;;2052170;28;20234;-57
2024/01/19 00:30:20;;;;;;;7.53;5.60;;;;;20.80;100171.00;;;;2053099;28;20215;-58
2024/01/19 00:31:20;;;;;;;8.27;5.30;;;;;20.90;100180.00;;;;2050647;28;20286;-58
2024/01/19 00:32:21;;;;;;;8.20;5.97;;;;;20.90;100173.00;;;;2044703;28;20216;-58
2024/01/19 00:33:21;;;;;;;8.77;5.40;;;;;20.90;100170.00;;;;2044065;28;20247;-57
2024/01/19 00:34:21;;;;;;;7.93;5.67;;;;;20.90;100166.00;;;;2050486;28;20567;-57
2024/01/19 00:35:22;;;;;;;7.13;5.50;;;;;20.90;100175.00;;;;2046594;28;20598;-58
2024/01/19 00:36:22;;;;;;;8.10;5.73;;;;;20.80;100176.00;;;;2045045;28;20684;-58
2024/01/19 00:37:22;;;;;;;7.13;5.03;;;;;20.80;100178.00;;;;2027719;29;20236;-57
2024/01/19 00:38:23;;;;;;;8.50;6.10;;;;;20.90;100175.00;;;;2044378;28;22894;-57
2024/01/19 00:39:23;;;;;;;7.90;5.60;;;;;20.90;100189.00;;;;2044599;28;20227;-57
2024/01/19 00:40:24;;;;;;;8.97;6.00;;;;;20.80;100189.00;;;;2043482;28;20262;-57
2024/01/19 00:41:26;;;;;;;8.93;5.57;;;;;20.80;100181.00;;;;2049921;28;20243;-58
2024/01/19 00:42:26;;;;;;;7.93;5.47;;;;;20.90;100183.00;;;;2039641;28;20284;-58
2024/01/19 00:43:27;;;;;;;7.83;5.50;;;;;20.80;100187.00;;;;2043198;28;20216;-57
2024/01/19 00:44:28;;;;;;;7.63;5.70;;;;;20.80;100183.00;;;;2044704;28;20235;-57
2024/01/19 00:45:29;;;;;;;9.50;5.70;;;;;20.90;100186.00;;;;2045682;28;20465;-58
2024/01/19 00:46:29;;;;;;;7.93;5.53;;;;;20.80;100200.00;;;;2049584;28;20716;-58
2024/01/19 00:47:30;;;;;;;8.00;5.33;;;;;20.80;100198.00;;;;2040145;28;20673;-58
2024/01/19 00:48:30;;;;;;;7.20;5.80;;;;;20.80;100194.00;;;;2045553;28;20228;-57
2024/01/19 00:49:30;;;;;;;7.70;5.60;;;;;20.80;100199.00;;;;2045494;28;20255;-58
2024/01/19 00:50:31;;;;;;;9.50;6.10;;;;;20.80;100192.00;;;;2055104;28;20876;-58
2024/01/19 00:51:31;;;;;;;9.73;6.80;;;;;20.80;100263.00;;;;2050995;28;20688;-58
2024/01/19 00:52:31;;;;;;;8.83;6.00;;;;;20.80;100194.00;;;;2035042;28;20787;-58
2024/01/19 00:53:31;;;;;;;8.20;5.50;;;;;20.80;100198.00;;;;2041219;28;20594;-58
2024/01/19 00:54:32;;;;;;;8.47;6.00;;;;;20.80;100193.00;;;;2044500;28;20805;-57
2024/01/19 00:55:33;;;;;;;9.97;6.20;;;;;20.80;100188.00;;;;2044830;28;20630;-58
2024/01/19 00:56:33;;;;;;;8.73;6.03;;;;;20.80;100195.00;;;;2044099;28;20231;-58
2024/01/19 00:57:33;;;;;;;9.20;6.13;;;;;20.80;100190.00;;;;2042061;28;20220;-58
2024/01/19 00:58:34;;;;;;;8.87;6.83;;;;;20.80;100196.00;;;;2040952;28;20329;-58
2024/01/19 00:59:35;;;;;;;8.70;6.22;;;;;20.80;100193.00;;;;2049504;28;20259;-57
2024/01/19 01:00:35;;;;;;;9.07;5.83;;;;;20.80;100194.00;;;;2045800;28;20248;-59
2024/01/19 01:01:35;;;;;;;8.70;6.60;;;;;20.80;100194.00;;;;2045136;28;20227;-59
2024/01/19 01:02:36;;;;;;;8.00;6.07;;;;;20.80;100191.00;;;;2041837;28;20224;-58
2024/01/19 01:03:36;;;;;;;8.90;5.93;;;;;20.80;100187.00;;;;2042165;28;20235;-58
2024/01/19 01:04:36;;;;;;;8.60;6.00;;;;;20.80;100198.00;;;;2044251;28;20308;-57
2024/01/19 01:05:37;;;;;;;8.40;6.20;;;;;20.80;100200.00;;;;2049503;28;20262;-57
2024/01/19 01:06:37;;;;;;;8.83;5.83;;;;;20.70;100204.00;;;;2048063;28;20223;-61
2024/01/19 01:07:39;;;;;;;7.73;5.90;;;;;20.80;100204.00;;;;2041192;28;20227;-59
2024/01/19 01:08:39;;;;;;;10.25;6.30;;;;;20.80;100203.00;;;;2050897;28;20367;-58
2024/01/19 01:09:39;;;;;;;8.20;5.57;;;;;20.70;100202.00;;;;2045311;28;20288;-58
2024/01/19 01:10:40;;;;;;;7.57;5.60;;;;;20.70;100213.00;;;;2051878;28;20259;-58
2024/01/19 01:11:40;;;;;;;8.40;5.90;;;;;20.80;100209.00;;;;2051684;28;20238;-58
2024/01/19 01:12:40;;;;;;;9.67;6.40;;;;;20.70;100213.00;;;;2036254;28;20225;-58
2024/01/19 01:13:41;;;;;;;9.67;6.93;;;;;20.70;100212.00;;;;2046214;28;20294;-57
2024/01/19 01:14:41;;;;;;;8.30;6.00;;;;;20.70;100207.00;;;;2047224;28;20278;-58
2024/01/19 01:15:42;;;;;;;8.50;6.00;;;;;20.70;100208.00;;;;2050220;28;20227;-57
2024/01/19 01:16:42;;;;;;;8.10;5.93;;;;;20.70;100209.00;;;;2047330;28;20266;-58
2024/01/19 01:17:42;;;;;;;7.87;6.17;;;;;20.70;100205.00;;;;2043100;28;20227;-58
2024/01/19 01:18:43;;;;;;;8.47;5.97;;;;;20.70;100209.00;;;;2044609;28;20269;-58
2024/01/19 01:19:43;;;;;;;7.67;5.83;;;;;20.70;100205.00;;;;2045386;28;20251;-58
2024/01/19 01:20:43;;;;;;;8.37;5.70;;;;;20.70;100211.00;;;;2048228;28;20331;-58
2024/01/19 01:21:44;;;;;;;8.20;6.50;;;;;20.70;100211.00;;;;2053091;28;20216;-57
2024/01/19 01:22:44;;;;;;;7.73;6.10;;;;;20.60;100213.00;;;;2048066;28;20227;-58
2024/01/19 01:23:44;;;;;;;9.00;5.87;;;;;20.70;100221.00;;;;2049190;28;20411;-58
2024/01/19 01:24:45;;;;;;;8.37;6.13;;;;;20.70;100217.00;;;;2048929;28;20233;-58
2024/01/19 01:25:45;;;;;;;9.63;6.50;;;;;20.70;100220.00;;;;2052065;28;20541;-58
2024/01/19 01:26:45;;;;;;;8.07;5.90;;;;;20.70;100219.00;;;;2053039;28;20577;-57
2024/01/19 01:27:46;;;;;;;6.53;5.00;;;;;20.70;100221.00;;;;2047416;28;20230;-58
2024/01/19 01:28:46;;;;;;;7.50;5.97;;;;;20.60;100227.00;;;;2048792;28;20632;-58
2024/01/19 01:29:46;;;;;;;8.60;6.10;;;;;20.70;100216.00;;;;2049859;28;20625;-58
2024/01/19 01:30:47;;;;;;;7.47;6.00;;;;;20.60;100087.00;;;;2050769;28;20254;-58
2024/01/19 01:31:48;;;;;;;7.60;5.20;;;;;20.60;100218.00;;;;2053277;28;20216;-58
2024/01/19 01:32:49;;;;;;;8.23;5.72;;;;;20.70;100222.00;;;;2039160;28;20215;-58
2024/01/19 01:33:49;;;;;;;8.40;6.27;;;;;20.60;100228.00;;;;2048956;28;20220;-58
2024/01/19 01:34:49;;;;;;;8.90;6.17;;;;;20.60;100237.00;;;;2046760;28;20205;-58
2024/01/19 01:35:50;;;;;;;8.60;6.33;;;;;20.60;100229.00;;;;2051458;28;20295;-58
2024/01/19 01:36:50;;;;;;;8.90;5.67;;;;;20.60;100233.00;;;;2049025;28;20270;-58
2024/01/19 01:37:50;;;;;;;8.20;5.70;;;;;20.10;100234.00;;;;2035329;28;20224;-57
2024/01/19 01:38:51;;;;;;;6.63;5.50;;;;;20.60;100243.00;;;;2045012;28;20299;-58
2024/01/19 01:39:51;;;;;;;7.97;5.30;;;;;20.60;100239.00;;;;2046062;28;20216;-59
2024/01/19 01:40:52;;;;;;;7.13;5.23;;;;;20.60;100247.00;;;;2046774;28;20216;-58
2024/01/19 01:41:52;;;;;;;8.87;6.00;;;;;20.60;100251.00;;;;2053216;28;20278;-58
2024/01/19 01:42:56;;;;;;;7.13;5.40;;;;;20.60;100257.00;;;;2037806;28;20224;-58
2024/01/19 01:43:57;;;;;;;7.38;5.78;;;;;20.60;100267.00;;;;2054992;28;20218;-57
2024/01/19 01:44:59;;;;;;;6.80;5.03;;;;;20.60;100269.00;;;;2046894;28;20988;-58
2024/01/19 01:46:00;;;;;;;9.25;5.85;;;;;20.60;100266.00;;;;2048883;28;20216;-58
2024/01/19 01:47:00;;;;;;;6.83;5.33;;;;;20.60;100269.00;;;;2048471;28;20307;-58
2024/01/19 01:48:01;;;;;;;7.63;5.70;;;;;20.60;100272.00;;;;2036041;28;20223;-57
2024/01/19 01:49:01;;;;;;;8.10;5.70;;;;;20.60;100278.00;;;;2046817;28;20241;-58
2024/01/19 01:50:01;;;;;;;8.10;5.87;;;;;20.60;100268.00;;;;2045772;28;20244;-57
2024/01/19 01:51:02;;;;;;;9.03;5.70;;;;;20.60;100278.00;;;;2047327;28;20593;-58
2024/01/19 01:52:02;;;;;;;8.40;5.50;;;;;20.60;100274.00;;;;2046414;28;20245;-58
2024/01/19 01:53:03;;;;;;;8.00;5.47;;;;;20.50;100271.00;;;;2035950;28;20208;-59
2024/01/19 01:54:03;;;;;;;7.20;5.33;;;;;20.50;100268.00;;;;2045472;28;20243;-57
2024/01/19 01:55:05;;;;;;;8.77;5.70;;;;;20.50;100274.00;;;;2052145;28;20587;-58
2024/01/19 01:56:05;;;;;;;6.35;4.85;;;;;20.50;100275.00;;;;2051420;28;20227;-59
2024/01/19 01:57:05;;;;;;;8.43;5.63;;;;;20.60;100280.00;;;;2048222;28;20231;-58
2024/01/19 01:58:07;;;;;;;7.20;4.90;;;;;20.50;100287.00;;;;2042546;28;20216;-58
2024/01/19 01:59:08;;;;;;;7.53;4.90;;;;;20.50;100288.00;;;;2051809;28;20297;-57
2024/01/19 02:00:09;;;;;;;7.05;5.13;;;;;20.50;100287.00;;;;2048708;28;20228;-58
2024/01/19 02:01:09;;;;;;;7.35;5.35;;;;;20.60;100295.00;;;;2049044;28;20668;-57
2024/01/19 02:02:10;;;;;;;8.10;5.10;;;;;20.50;100292.00;;;;2051634;28;20216;-58
2024/01/19 02:03:10;;;;;;;6.10;4.80;;;;;20.60;100295.00;;;;2039177;28;20596;-58
2024/01/19 02:04:11;;;;;;;7.67;4.90;;;;;20.50;100332.00;;;;2049241;28;20627;-58
2024/01/19 02:05:11;;;;;;;8.15;5.35;;;;;20.50;100297.00;;;;2043335;28;20224;-57
2024/01/19 02:06:12;;;;;;;6.93;5.00;;;;;20.50;100293.00;;;;2047781;28;20242;-58
2024/01/19 02:07:12;;;;;;;6.63;4.80;;;;;20.50;100302.00;;;;2045642;28;20231;-58
2024/01/19 02:08:12;;;;;;;7.53;5.10;;;;;20.50;100294.00;;;;2041338;28;20220;-57
2024/01/19 02:09:13;;;;;;;6.07;5.10;;;;;20.50;100293.00;;;;2045511;28;20739;-61
2024/01/19 02:10:13;;;;;;;6.03;4.77;;;;;20.50;100309.00;;;;2047784;28;20215;-57
2024/01/19 02:11:14;;;;;;;7.40;5.27;;;;;20.50;100300.00;;;;2046734;28;20462;-58
2024/01/19 02:12:15;;;;;;;6.73;5.00;;;;;20.50;100299.00;;;;2043619;28;20921;-59
2024/01/19 02:13:16;;;;;;;6.30;4.97;;;;;20.40;100306.00;;;;2038381;28;20211;-58
2024/01/19 02:14:16;;;;;;;7.07;5.00;;;;;20.40;100303.00;;;;2050993;28;20459;-58
2024/01/19 02:15:20;;;;;;;6.20;4.53;;;;;20.50;100300.00;;;;2050807;28;21060;-58
2024/01/19 02:16:20;;;;;;;7.93;4.93;;;;;20.50;100296.00;;;;2047409;28;20268;-58
2024/01/19 02:17:23;;;;;;;8.63;6.00;;;;;19.90;100297.00;;;;2043359;28;20224;-58
2024/01/19 02:18:23;;;;;;;6.45;5.10;;;;;20.40;100290.00;;;;2040425;28;20701;-59
2024/01/19 02:19:24;;;;;;;7.53;4.87;;;;;20.50;100300.00;;;;2058281;28;20218;-58
2024/01/19 02:20:24;;;;;;;7.27;4.93;;;;;20.40;100293.00;;;;2048246;28;20291;-57
2024/01/19 02:21:24;;;;;;;7.93;5.60;;;;;20.40;100295.00;;;;2049989;28;20226;-57
2024/01/19 02:22:25;;;;;;;7.00;4.63;;;;;20.40;100300.00;;;;2038597;28;20216;-58
2024/01/19 02:23:26;;;;;;;7.80;5.00;;;;;20.40;100293.00;;;;2044086;28;20306;-58
2024/01/19 02:24:26;;;;;;;7.22;5.10;;;;;20.40;100295.00;;;;2043322;28;20229;-58
2024/01/19 02:25:27;;;;;;;6.40;4.90;;;;;20.40;100295.00;;;;2034585;29;20645;-58
2024/01/19 02:26:31;;;;;;;5.90;4.90;;;;;20.40;100300.00;;;;2036274;29;20852;-57
2024/01/19 02:27:32;;;;;;;5.85;4.60;;;;;20.40;100299.00;;;;2031323;28;20224;-57
2024/01/19 02:28:32;;;;;;;6.07;4.70;;;;;20.40;100310.00;;;;2046346;28;20223;-58
2024/01/19 02:29:32;;;;;;;5.40;4.30;;;;;20.40;100301.00;;;;2043991;28;20498;-57
2024/01/19 02:30:33;;;;;;;6.60;4.90;;;;;20.40;100311.00;;;;2046983;28;20215;-58
2024/01/19 02:31:33;;;;;;;7.10;5.20;;;;;20.40;100312.00;;;;2042640;28;20306;-57
2024/01/19 02:32:33;;;;;;;6.03;4.60;;;;;20.40;100314.00;;;;2035938;28;20235;-57
2024/01/19 02:33:34;;;;;;;6.10;4.60;;;;;20.40;100321.00;;;;2051010;28;20270;-58
2024/01/19 02:34:34;;;;;;;7.27;5.20;;;;;20.40;100318.00;;;;2051066;28;20239;-59
2024/01/19 02:35:34;;;;;;;7.27;4.90;;;;;20.40;100315.00;;;;2048939;28;20227;-58
2024/01/19 02:36:35;;;;;;;7.07;5.30;;;;;20.40;100314.00;;;;2048544;28;20249;-58
2024/01/19 02:37:35;;;;;;;7.10;4.80;;;;;20.40;100317.00;;;;2036246;28;20228;-58
2024/01/19 02:38:36;;;;;;;6.70;4.87;;;;;20.40;100323.00;;;;2051015;28;20219;-57
2024/01/19 02:39:36;;;;;;;6.73;4.80;;;;;20.40;100335.00;;;;2049597;28;20219;-58
2024/01/19 02:40:36;;;;;;;7.50;5.27;;;;;20.40;100331.00;;;;2052791;28;20286;-57
2024/01/19 02:41:37;;;;;;;6.47;4.93;;;;;20.30;100333.00;;;;2048387;28;20226;-57
2024/01/19 02:42:37;;;;;;;6.23;4.63;;;;;20.30;100332.00;;;;2036134;28;20223;-59
2024/01/19 02:43:37;;;;;;;6.17;4.27;;;;;20.30;100338.00;;;;2046644;28;20216;-58
2024/01/19 02:44:37;;;;;;;5.60;4.60;;;;;20.40;100336.00;;;;2052475;28;20227;-58
2024/01/19 02:45:38;;;;;;;6.40;4.93;;;;;20.30;100338.00;;;;2051735;28;20223;-58
2024/01/19 02:46:38;;;;;;;7.33;5.07;;;;;20.30;100336.00;;;;2052786;28;20239;-57
2024/01/19 02:47:39;;;;;;;7.73;4.40;;;;;20.30;100336.00;;;;2029595;28;20231;-57
2024/01/19 02:48:39;;;;;;;6.63;5.00;;;;;20.30;100339.00;;;;2050050;28;20223;-58
2024/01/19 02:49:39;;;;;;;7.67;4.87;;;;;20.30;100335.00;;;;2052882;28;20224;-57
2024/01/19 02:50:40;;;;;;;5.17;4.13;;;;;20.30;100333.00;;;;2051894;28;20226;-58
2024/01/19 02:51:40;;;;;;;6.13;4.53;;;;;20.30;100344.00;;;;2044424;28;20311;-58
2024/01/19 02:52:40;;;;;;;7.23;5.30;;;;;20.30;100347.00;;;;2033443;28;20991;-58
2024/01/19 02:53:40;;;;;;;6.53;4.73;;;;;20.30;100339.00;;;;2048347;28;20215;-58
2024/01/19 02:54:41;;;;;;;6.63;4.60;;;;;20.30;100341.00;;;;2043348;28;20339;-58
2024/01/19 02:55:41;;;;;;;6.10;4.50;;;;;20.30;100344.00;;;;2043469;28;20223;-58
2024/01/19 02:56:42;;;;;;;7.60;5.00;;;;;20.30;100349.00;;;;2043640;28;20216;-58
2024/01/19 02:57:42;;;;;;;6.47;4.60;;;;;20.30;100345.00;;;;2034558;28;20236;-58
2024/01/19 02:58:42;;;;;;;6.40;4.70;;;;;20.30;100344.00;;;;2052308;28;20219;-58
2024/01/19 02:59:43;;;;;;;5.27;4.20;;;;;20.30;100343.00;;;;2042645;28;21006;-58
2024/01/19 03:00:44;;;;;;;5.70;4.10;;;;;19.40;100345.00;;;;2048392;28;20777;-58
2024/01/19 03:01:44;;;;;;;6.30;4.73;;;;;20.30;100342.00;;;;2045016;28;20219;-58
2024/01/19 03:02:44;;;;;;;6.60;4.33;;;;;20.30;100335.00;;;;2034291;28;20259;-58
2024/01/19 03:03:45;;;;;;;6.87;4.70;;;;;20.30;100335.00;;;;2050355;28;20226;-58
2024/01/19 03:04:45;;;;;;;6.70;5.20;;;;;20.20;100325.00;;;;2049534;28;20231;-58
2024/01/19 03:05:45;;;;;;;6.27;5.00;;;;;20.20;100337.00;;;;2050096;28;20239;-58
2024/01/19 03:06:46;;;;;;;5.90;4.50;;;;;20.30;100335.00;;;;2051874;28;20277;-58
2024/01/19 03:07:46;;;;;;;6.20;4.83;;;;;20.30;100173.00;;;;2032845;28;20251;-58
2024/01/19 03:08:46;;;;;;;6.57;4.73;;;;;20.30;100335.00;;;;2043731;28;20228;-59
2024/01/19 03:09:47;;;;;;;6.80;4.93;;;;;20.30;100335.00;;;;2043908;28;20580;-59
2024/01/19 03:10:47;;;;;;;6.90;5.03;;;;;20.30;100331.00;;;;2043774;28;20219;-58
2024/01/19 03:11:47;;;;;;;6.53;4.67;;;;;20.30;100331.00;;;;2043809;28;20348;-58
2024/01/19 03:12:48;;;;;;;6.70;5.27;;;;;20.30;100342.00;;;;2034099;28;20247;-57
2024/01/19 03:13:50;;;;;;;6.77;5.30;;;;;20.20;100335.00;;;;2047021;28;20238;-58
2024/01/19 03:14:50;;;;;;;5.57;4.28;;;;;20.30;100344.00;;;;2045739;28;20291;-58
2024/01/19 03:15:51;;;;;;;7.23;4.97;;;;;20.20;100341.00;;;;2046739;28;20207;-58
2024/01/19 03:16:51;;;;;;;7.00;5.10;;;;;20.30;100341.00;;;;2049472;28;20258;-59
2024/01/19 03:17:51;;;;;;;6.37;4.90;;;;;20.30;100342.00;;;;2045830;28;20223;-58
2024/01/19 03:18:55;;;;;;;6.83;4.93;;;;;20.30;100342.00;;;;2041485;28;20213;-58
2024/01/19 03:19:55;;;;;;;7.47;4.68;;;;;20.30;100345.00;;;;2043683;28;20227;-58
2024/01/19 03:20:55;;;;;;;6.50;4.90;;;;;20.20;100349.00;;;;2044779;28;20259;-57
2024/01/19 03:21:55;;;;;;;7.00;4.60;;;;;20.20;100354.00;;;;2044549;28;20222;-58
2024/01/19 03:22:56;;;;;;;6.07;4.03;;;;;20.20;100358.00;;;;2042342;28;20220;-58
2024/01/19 03:23:56;;;;;;;7.30;4.90;;;;;20.20;100361.00;;;;2045372;28;20263;-58
2024/01/19 03:24:56;;;;;;;6.20;4.80;;;;;20.20;100354.00;;;;2044669;28;20226;-57
2024/01/19 03:25:57;;;;;;;6.33;4.90;;;;;20.20;100354.00;;;;2048622;28;20216;-58
2024/01/19 03:26:57;;;;;;;5.47;3.90;;;;;20.20;100351.00;;;;2053338;28;20222;-58
2024/01/19 03:27:58;;;;;;;7.33;4.93;;;;;20.20;100355.00;;;;2048486;28;20207;-58
2024/01/19 03:28:58;;;;;;;6.77;5.07;;;;;20.20;100355.00;;;;2047984;28;20640;-57
2024/01/19 03:29:58;;;;;;;6.37;4.73;;;;;20.20;100351.00;;;;2043691;28;20729;-58
2024/01/19 03:30:59;;;;;;;6.13;4.67;;;;;20.20;100357.00;;;;2053750;28;20987;-58
2024/01/19 03:31:59;;;;;;;5.90;4.57;;;;;20.20;100356.00;;;;2053014;28;20286;-58
2024/01/19 03:33:00;;;;;;;6.47;4.57;;;;;20.20;100364.00;;;;2042150;28;20219;-58
2024/01/19 03:34:00;;;;;;;6.13;5.07;;;;;20.20;100409.00;;;;2052612;28;20233;-58
2024/01/19 03:35:00;;;;;;;6.07;4.37;;;;;20.10;100366.00;;;;2043728;28;20223;-58
2024/01/19 03:36:01;;;;;;;6.77;4.77;;;;;20.10;100362.00;;;;2045864;28;20208;-58
2024/01/19 03:37:03;;;;;;;6.47;4.90;;;;;20.20;100369.00;;;;2048394;28;20220;-58
2024/01/19 03:38:03;;;;;;;6.38;4.70;;;;;20.20;100361.00;;;;2035927;28;20212;-58
2024/01/19 03:39:05;;;;;;;6.20;4.60;;;;;20.20;100364.00;;;;2054102;28;20207;-59
2024/01/19 03:40:06;;;;;;;6.07;4.50;;;;;20.10;100369.00;;;;2049306;28;20211;-59
2024/01/19 03:41:06;;;;;;;7.63;5.23;;;;;20.20;100375.00;;;;2045468;28;20243;-58
2024/01/19 03:42:07;;;;;;;6.73;5.07;;;;;20.10;100372.00;;;;2046631;28;20601;-57
2024/01/19 03:43:07;;;;;;;6.83;4.50;;;;;20.10;100375.00;;;;2036263;28;20330;-58
2024/01/19 03:44:08;;;;;;;5.40;4.07;;;;;20.10;100372.00;;;;2046164;28;20289;-57
2024/01/19 03:45:08;;;;;;;5.43;4.17;;;;;20.20;100376.00;;;;2044246;28;20483;-57
2024/01/19 03:46:09;;;;;;;6.13;4.40;;;;;20.20;100372.00;;;;2049848;28;20463;-58
2024/01/19 03:47:09;;;;;;;8.43;5.70;;;;;20.10;100368.00;;;;2049638;28;20212;-58
2024/01/19 03:48:09;;;;;;;7.27;4.50;;;;;20.10;100376.00;;;;2040305;28;20266;-58
2024/01/19 03:49:10;;;;;;;7.00;5.00;;;;;20.10;100385.00;;;;2051004;28;20223;-58
2024/01/19 03:50:10;;;;;;;6.23;4.20;;;;;20.10;100380.00;;;;2051734;28;20805;-59
2024/01/19 03:51:10;;;;;;;6.40;4.93;;;;;20.10;100383.00;;;;2052248;28;20700;-58
2024/01/19 03:52:11;;;;;;;5.70;4.57;;;;;20.10;100371.00;;;;2048758;28;20207;-58
2024/01/19 03:53:11;;;;;;;6.50;4.87;;;;;20.10;100380.00;;;;2040782;28;20218;-59
2024/01/19 03:54:11;;;;;;;7.13;4.90;;;;;20.10;100381.00;;;;2053356;28;20291;-59
2024/01/19 03:55:12;;;;;;;7.73;4.80;;;;;20.10;100387.00;;;;2046478;28;20212;-57
2024/01/19 03:56:12;;;;;;;7.47;4.70;;;;;20.10;100378.00;;;;2045665;28;25090;-58
2024/01/19 03:57:12;;;;;;;6.23;4.57;;;;;20.10;100378.00;;;;2049669;28;20911;-59
2024/01/19 03:58:13;;;;;;;7.90;5.80;;;;;20.10;100376.00;;;;2043504;28;20220;-59
2024/01/19 03:59:13;;;;;;;6.70;4.73;;;;;20.10;100382.00;;;;2051030;28;20223;-58
2024/01/19 04:00:13;;;;;;;7.27;5.33;;;;;20.10;100371.00;;;;2050010;28;20211;-59
2024/01/19 04:01:15;;;;;;;7.83;4.90;;;;;20.10;100379.00;;;;2047328;28;20259;-58
2024/01/19 04:02:15;;;;;;;6.43;4.50;;;;;20.10;100380.00;;;;2051434;28;20215;-58
2024/01/19 04:03:16;;;;;;;7.50;5.13;;;;;20.10;100388.00;;;;2039017;28;20269;-58
2024/01/19 04:04:16;;;;;;;6.03;4.67;;;;;20.10;100381.00;;;;2045003;28;20228;-56
2024/01/19 04:05:16;;;;;;;5.60;4.27;;;;;20.00;100382.00;;;;2043243;28;20232;-57
2024/01/19 04:06:17;;;;;;;7.30;4.90;;;;;20.10;100379.00;;;;2041953;28;20299;-55
2024/01/19 04:07:17;;;;;;;6.77;4.70;;;;;20.10;100380.00;;;;2040301;28;20227;-55
2024/01/19 04:08:19;;;;;;;7.33;5.03;;;;;20.10;100391.00;;;;2051502;28;20219;-57
2024/01/19 04:09:19;;;;;;;7.18;4.93;;;;;20.10;100384.00;;;;2055417;28;20325;-55
2024/01/19 04:10:19;;;;;;;6.10;4.50;;;;;20.00;100387.00;;;;2045693;28;20749;-56
2024/01/19 04:11:20;;;;;;;7.33;5.20;;;;;20.00;100386.00;;;;2045003;28;20236;-56
2024/01/19 04:12:20;;;;;;;7.03;4.83;;;;;20.00;100398.00;;;;2053184;28;20222;-59
2024/01/19 04:13:20;;;;;;;7.00;4.70;;;;;20.00;100389.00;;;;2042220;28;20223;-58
2024/01/19 04:14:21;;;;;;;7.53;4.90;;;;;20.00;100384.00;;;;2050145;28;20244;-55
2024/01/19 04:15:21;;;;;;;9.20;5.37;;;;;20.00;100387.00;;;;2048968;28;20278;-55
2024/01/19 04:16:22;;;;;;;7.17;5.00;;;;;20.10;100390.00;;;;2049551;28;20211;-56
2024/01/19 04:17:22;;;;;;;6.97;5.07;;;;;20.00;100387.00;;;;2040649;28;20227;-57
2024/01/19 04:18:22;;;;;;;6.20;4.77;;;;;20.00;100396.00;;;;2050269;28;20294;-57
2024/01/19 04:19:23;;;;;;;6.20;4.63;;;;;20.00;100394.00;;;;2045927;28;20212;-58
2024/01/19 04:20:23;;;;;;;6.93;4.80;;;;;20.00;100389.00;;;;2043765;28;20311;-56
2024/01/19 04:21:23;;;;;;;7.17;5.00;;;;;20.00;100394.00;;;;2047546;28;20227;-57
2024/01/19 04:22:25;;;;;;;6.80;5.03;;;;;20.00;100383.00;;;;2041307;28;20215;-56
2024/01/19 04:23:26;;;;;;;6.93;5.07;;;;;20.00;100382.00;;;;2047627;28;20226;-55
2024/01/19 04:24:26;;;;;;;7.80;5.33;;;;;20.00;100389.00;;;;2045874;28;20637;-56
2024/01/19 04:25:26;;;;;;;7.10;4.63;;;;;20.00;100395.00;;;;2044694;28;20701;-57
2024/01/19 04:26:27;;;;;;;6.33;4.70;;;;;19.90;100389.00;;;;2049220;28;20691;-63
2024/01/19 04:27:28;;;;;;;6.10;4.30;;;;;20.00;100391.00;;;;2038929;28;20900;-56
2024/01/19 04:28:28;;;;;;;6.70;4.60;;;;;20.00;100394.00;;;;2049442;28;20224;-56
2024/01/19 04:29:28;;;;;;;6.53;4.40;;;;;20.00;100403.00;;;;2053744;28;20223;-55
2024/01/19 04:30:29;;;;;;;6.30;4.80;;;;;20.00;100405.00;;;;2058856;28;20273;-58
2024/01/19 04:31:29;;;;;;;7.77;4.57;;;;;20.00;100402.00;;;;2061792;28;20222;-58
2024/01/19 04:32:29;;;;;;;6.00;4.30;;;;;20.00;100405.00;;;;2046497;28;20231;-58
2024/01/19 04:33:30;;;;;;;6.50;4.70;;;;;20.00;100413.00;;;;2048329;28;20223;-59
2024/01/19 04:34:30;;;;;;;9.70;5.60;;;;;20.00;100409.00;;;;2044969;28;20662;-58
2024/01/19 04:35:30;;;;;;;6.00;4.93;;;;;20.00;100408.00;;;;2046067;28;20605;-55
2024/01/19 04:36:31;;;;;;;6.00;4.57;;;;;20.00;100403.00;;;;2053403;28;20232;-56
2024/01/19 04:37:31;;;;;;;7.00;5.20;;;;;20.00;100409.00;;;;2043308;28;20235;-57
2024/01/19 04:38:31;;;;;;;6.43;4.40;;;;;20.00;100400.00;;;;2052963;28;20273;-58
2024/01/19 04:39:32;;;;;;;6.73;4.40;;;;;20.00;100400.00;;;;2045046;28;20227;-59
2024/01/19 04:40:32;;;;;;;7.30;5.30;;;;;19.90;100397.00;;;;2046353;28;20224;-58
2024/01/19 04:41:33;;;;;;;6.80;4.90;;;;;19.90;100396.00;;;;2048220;28;20259;-57
2024/01/19 04:42:33;;;;;;;7.20;4.27;;;;;19.90;100394.00;;;;2041005;28;20230;-58
2024/01/19 04:43:33;;;;;;;7.60;5.20;;;;;19.90;100389.00;;;;2055894;28;20219;-59
2024/01/19 04:44:34;;;;;;;6.60;4.80;;;;;20.00;100406.00;;;;2057346;28;20728;-58
2024/01/19 04:45:35;;;;;;;7.00;4.83;;;;;19.90;100407.00;;;;2049613;28;20220;-59
2024/01/19 04:46:35;;;;;;;6.53;4.20;;;;;20.00;100399.00;;;;2046504;28;20523;-56
2024/01/19 04:47:35;;;;;;;6.53;4.47;;;;;20.00;100401.00;;;;2039768;28;20224;-57
2024/01/19 04:48:36;;;;;;;7.37;4.40;;;;;19.90;100400.00;;;;2048707;28;20228;-57
2024/01/19 04:49:36;;;;;;;7.37;4.67;;;;;19.90;100401.00;;;;2058653;28;20227;-58
2024/01/19 04:50:38;;;;;;;8.03;4.93;;;;;19.90;100403.00;;;;2052645;28;20552;-59
2024/01/19 04:51:38;;;;;;;6.95;4.63;;;;;19.90;100402.00;;;;2052619;28;20323;-59
2024/01/19 04:52:39;;;;;;;7.13;4.77;;;;;19.90;100405.00;;;;2044128;28;20235;-58
2024/01/19 04:53:39;;;;;;;7.37;5.30;;;;;19.90;100409.00;;;;2051361;28;20246;-57
2024/01/19 04:54:39;;;;;;;7.30;4.87;;;;;19.90;100401.00;;;;2053595;28;20220;-55
2024/01/19 04:55:40;;;;;;;6.97;4.50;;;;;19.90;100413.00;;;;2052577;28;20229;-55
2024/01/19 04:56:40;;;;;;;6.27;4.40;;;;;19.90;100402.00;;;;2053794;28;20224;-58
2024/01/19 04:57:40;;;;;;;7.23;5.07;;;;;19.90;100408.00;;;;2044097;28;20235;-57
2024/01/19 04:58:41;;;;;;;6.20;4.60;;;;;19.90;100411.00;;;;2058340;28;20269;-56